Time;durP1;ratioP1;P1;durP2;ratioP2;P2;SDS_P1;SDS_P2;PMS_P1;PMS_P2;Temp;Humidity;BMP_temperature;BMP_pressure;BME280_temperature;BME280_humidity;BME280_pressure;Samples;Min_cycle;Max_cycle;Signal;HPM_P1;HPM_P2
2022/08/26 00:00:38;;;;;;;34.17;27.60;;;;;;;;;;5014131;28;20049;-62
2022/08/26 00:03:05;;;;;;;34.65;27.98;;;;;;;;;;4992575;28;20045;-63
2022/08/26 00:05:31;;;;;;;32.00;27.45;;;;;;;;;;4998817;28;20100;-63
2022/08/26 00:07:57;;;;;;;33.53;27.67;;;;;;;;;;5018605;28;22343;-63
2022/08/26 00:10:23;;;;;;;33.03;28.00;;;;;;;;;;5011205;28;20048;-63
2022/08/26 00:12:50;;;;;;;32.55;26.13;;;;;;;;;;4991398;28;20041;-63
2022/08/26 00:15:17;;;;;;;29.63;26.20;;;;;;;;;;4986512;28;20038;-63
2022/08/26 00:17:44;;;;;;;29.80;26.40;;;;;;;;;;5006917;28;20034;-63
2022/08/26 00:20:10;;;;;;;33.00;26.92;;;;;;;;;;5011483;28;20044;-63
2022/08/26 00:22:36;;;;;;;32.83;28.48;;;;;;;;;;5009245;28;20042;-63
2022/08/26 00:25:04;;;;;;;35.38;29.63;;;;;;;;;;5010693;28;20178;-63
2022/08/26 00:27:32;;;;;;;35.00;28.98;;;;;;;;;;5006307;28;20084;-63
2022/08/26 00:29:59;;;;;;;33.65;29.38;;;;;;;;;;4991356;28;20058;-63
2022/08/26 00:32:25;;;;;;;41.30;30.92;;;;;;;;;;5006357;28;20607;-63
2022/08/26 00:34:51;;;;;;;40.33;32.70;;;;;;;;;;5004755;28;20053;-63
2022/08/26 00:37:17;;;;;;;38.70;32.00;;;;;;;;;;5017217;28;20038;-63
2022/08/26 00:39:43;;;;;;;38.45;32.30;;;;;;;;;;5006206;28;20037;-63
2022/08/26 00:42:09;;;;;;;38.05;32.17;;;;;;;;;;5005899;28;20189;-63
2022/08/26 00:44:36;;;;;;;38.40;32.78;;;;;;;;;;4997516;28;20039;-63
2022/08/26 00:47:03;;;;;;;37.70;32.58;;;;;;;;;;5010689;28;20045;-63
2022/08/26 00:49:40;;;;;;;40.78;33.90;;;;;;;;;;4993479;28;20045;-63
2022/08/26 00:52:11;;;;;;;39.83;33.83;;;;;;;;;;5012566;28;20520;-63
2022/08/26 00:54:44;;;;;;;43.58;35.88;;;;;;;;;;5001082;28;20030;-63
2022/08/26 00:57:12;;;;;;;42.35;35.92;;;;;;;;;;5011034;28;20045;-63
2022/08/26 00:59:39;;;;;;;44.67;35.63;;;;;;;;;;4995631;28;20048;-63
2022/08/26 01:02:05;;;;;;;41.17;35.88;;;;;;;;;;5003592;28;20038;-63
2022/08/26 01:04:33;;;;;;;48.55;38.10;;;;;;;;;;4988672;28;20046;-63
2022/08/26 01:06:59;;;;;;;46.65;37.75;;;;;;;;;;4993027;28;20045;-63
2022/08/26 01:09:25;;;;;;;45.88;39.83;;;;;;;;;;5022518;28;20049;-63
2022/08/26 01:11:54;;;;;;;51.05;40.33;;;;;;;;;;5010828;28;20037;-64
2022/08/26 01:14:21;;;;;;;48.28;40.45;;;;;;;;;;5013758;28;20037;-63
2022/08/26 01:16:47;;;;;;;48.45;39.80;;;;;;;;;;5013599;28;20072;-63
2022/08/26 01:19:23;;;;;;;49.05;39.88;;;;;;;;;;5005785;28;20066;-63
2022/08/26 01:21:59;;;;;;;51.22;40.60;;;;;;;;;;5013369;28;20096;-63
2022/08/26 01:24:27;;;;;;;50.92;41.33;;;;;;;;;;5004521;28;20049;-63
2022/08/26 01:26:57;;;;;;;52.88;41.78;;;;;;;;;;4994463;28;20052;-63
2022/08/26 01:29:24;;;;;;;54.83;40.67;;;;;;;;;;4993735;28;20078;-64
2022/08/26 01:31:54;;;;;;;54.97;40.58;;;;;;;;;;4989729;28;20049;-63
2022/08/26 01:34:22;;;;;;;52.58;41.95;;;;;;;;;;5008356;28;20411;-63
2022/08/26 01:36:49;;;;;;;52.42;40.88;;;;;;;;;;4999517;28;20279;-63
2022/08/26 01:39:16;;;;;;;58.10;40.67;;;;;;;;;;5018340;28;20117;-63
2022/08/26 01:41:43;;;;;;;55.00;41.42;;;;;;;;;;4991978;28;20593;-63
2022/08/26 01:44:13;;;;;;;54.47;40.88;;;;;;;;;;4995711;28;20396;-63
2022/08/26 01:46:40;;;;;;;54.55;41.65;;;;;;;;;;4994483;28;20080;-63
2022/08/26 01:49:07;;;;;;;56.67;40.10;;;;;;;;;;5001642;28;20408;-63
2022/08/26 01:51:35;;;;;;;58.58;40.33;;;;;;;;;;5011691;28;20072;-63
2022/08/26 01:54:02;;;;;;;56.95;39.47;;;;;;;;;;5015529;28;20049;-63
2022/08/26 01:56:28;;;;;;;59.47;39.30;;;;;;;;;;5006586;28;20504;-63
2022/08/26 01:58:56;;;;;;;51.30;38.17;;;;;;;;;;5016045;28;20125;-63
2022/08/26 02:01:23;;;;;;;58.63;39.58;;;;;;;;;;5006418;28;20056;-63
2022/08/26 02:04:04;;;;;;;53.42;37.55;;;;;;;;;;5018578;28;20137;-63
2022/08/26 02:06:31;;;;;;;55.38;37.90;;;;;;;;;;5022678;28;20037;-63
2022/08/26 02:08:59;;;;;;;49.65;36.00;;;;;;;;;;4995742;28;20093;-63
2022/08/26 02:11:25;;;;;;;48.35;36.83;;;;;;;;;;5010687;28;20069;-63
2022/08/26 02:13:53;;;;;;;51.92;36.97;;;;;;;;;;4989530;28;20040;-63
2022/08/26 02:16:21;;;;;;;48.95;36.08;;;;;;;;;;5013856;28;20048;-64
2022/08/26 02:18:48;;;;;;;51.97;34.60;;;;;;;;;;5023346;28;20046;-63
2022/08/26 02:21:14;;;;;;;52.22;35.95;;;;;;;;;;5012223;28;20047;-63
2022/08/26 02:23:41;;;;;;;48.55;33.22;;;;;;;;;;5013431;28;20042;-63
2022/08/26 02:26:13;;;;;;;48.83;34.25;;;;;;;;;;5006340;28;20046;-63
2022/08/26 02:28:41;;;;;;;52.30;33.95;;;;;;;;;;5007335;28;20046;-63
2022/08/26 02:31:07;;;;;;;50.58;33.85;;;;;;;;;;5003131;28;20430;-63
2022/08/26 02:33:33;;;;;;;44.97;32.10;;;;;;;;;;4997918;28;20508;-63
2022/08/26 02:35:59;;;;;;;46.70;31.80;;;;;;;;;;5009301;28;20124;-63
2022/08/26 02:38:25;;;;;;;47.67;32.33;;;;;;;;;;4987013;28;20116;-63
2022/08/26 02:40:51;;;;;;;43.78;31.92;;;;;;;;;;5011998;28;20124;-63
2022/08/26 02:43:17;;;;;;;47.65;30.35;;;;;;;;;;5011430;28;20037;-63
2022/08/26 02:45:44;;;;;;;41.95;29.90;;;;;;;;;;5013722;28;20117;-63
2022/08/26 02:48:12;;;;;;;46.90;32.13;;;;;;;;;;5020597;28;20466;-63
2022/08/26 02:50:38;;;;;;;44.90;29.63;;;;;;;;;;5024087;28;20048;-63
2022/08/26 02:53:04;;;;;;;41.92;30.02;;;;;;;;;;4997919;28;20049;-63
2022/08/26 02:55:31;;;;;;;47.63;30.52;;;;;;;;;;4999351;28;20038;-63
2022/08/26 02:57:57;;;;;;;42.90;29.88;;;;;;;;;;5000737;28;20396;-63
2022/08/26 03:00:24;;;;;;;48.15;30.42;;;;;;;;;;4982870;28;20043;-63
2022/08/26 03:02:50;;;;;;;47.15;31.50;;;;;;;;;;4994796;28;20431;-63
2022/08/26 03:05:18;;;;;;;43.47;30.48;;;;;;;;;;4994827;28;20399;-63
2022/08/26 03:07:44;;;;;;;42.92;30.10;;;;;;;;;;4989388;28;20113;-63
2022/08/26 03:10:11;;;;;;;48.70;30.48;;;;;;;;;;4992652;28;20049;-63
2022/08/26 03:12:38;;;;;;;39.28;28.67;;;;;;;;;;5004663;28;20038;-63
2022/08/26 03:15:05;;;;;;;41.25;30.70;;;;;;;;;;4993084;28;20086;-63
2022/08/26 03:17:31;;;;;;;44.45;30.83;;;;;;;;;;5002137;28;20045;-63
2022/08/26 03:19:57;;;;;;;44.30;30.80;;;;;;;;;;4990851;28;20056;-63
2022/08/26 03:22:23;;;;;;;45.30;29.55;;;;;;;;;;5008455;28;20034;-63
2022/08/26 03:24:50;;;;;;;47.47;32.08;;;;;;;;;;5002654;28;20046;-63
2022/08/26 03:27:16;;;;;;;45.15;29.42;;;;;;;;;;5009325;28;20061;-63
2022/08/26 03:32:27;;;;;;;44.03;31.05;;;;;;;;;;5013155;28;20041;-63
2022/08/26 03:34:53;;;;;;;50.28;30.75;;;;;;;;;;5013997;28;20438;-63
2022/08/26 03:37:20;;;;;;;44.03;30.52;;;;;;;;;;5000435;28;20039;-63
2022/08/26 03:39:46;;;;;;;45.53;30.20;;;;;;;;;;4997891;28;20507;-63
2022/08/26 03:42:13;;;;;;;40.47;28.92;;;;;;;;;;5012257;28;20564;-63
2022/08/26 03:44:39;;;;;;;47.33;30.30;;;;;;;;;;5020376;28;20050;-63
2022/08/26 03:47:06;;;;;;;40.13;29.70;;;;;;;;;;5011386;28;20052;-63
2022/08/26 03:49:34;;;;;;;43.00;29.30;;;;;;;;;;5015145;28;20087;-63
2022/08/26 03:52:00;;;;;;;42.95;30.58;;;;;;;;;;5009601;28;20045;-63
2022/08/26 03:54:26;;;;;;;49.05;29.88;;;;;;;;;;5005401;28;20034;-63
2022/08/26 03:56:52;;;;;;;44.25;28.95;;;;;;;;;;5003583;28;20092;-63
2022/08/26 03:59:18;;;;;;;42.95;28.58;;;;;;;;;;5019915;28;20103;-63
2022/08/26 04:01:45;;;;;;;40.38;27.23;;;;;;;;;;5005503;28;20045;-63
2022/08/26 04:04:11;;;;;;;43.53;28.42;;;;;;;;;;4975362;28;20049;-63
2022/08/26 04:06:38;;;;;;;46.30;29.08;;;;;;;;;;5008223;28;20038;-63
2022/08/26 04:09:08;;;;;;;36.10;26.95;;;;;;;;;;5018721;28;20052;-63
2022/08/26 04:11:36;;;;;;;43.25;27.92;;;;;;;;;;5026384;28;20034;-63
2022/08/26 04:14:04;;;;;;;39.53;27.27;;;;;;;;;;5017680;22;20051;-64
2022/08/26 04:16:30;;;;;;;43.28;27.83;;;;;;;;;;5050505;28;20063;-64
2022/08/26 04:18:57;;;;;;;42.42;27.38;;;;;;;;;;5043871;28;20046;-64
2022/08/26 04:21:24;;;;;;;39.67;26.17;;;;;;;;;;5042859;28;20041;-64
2022/08/26 04:23:51;;;;;;;35.28;25.27;;;;;;;;;;5033805;28;20124;-64
2022/08/26 04:26:18;;;;;;;38.10;26.60;;;;;;;;;;5040433;28;20494;-64
2022/08/26 04:28:44;;;;;;;41.65;25.90;;;;;;;;;;5031490;28;20427;-64
2022/08/26 04:31:12;;;;;;;33.33;24.67;;;;;;;;;;5045370;28;20040;-64
2022/08/26 04:33:38;;;;;;;35.25;23.77;;;;;;;;;;5046669;28;20037;-64
2022/08/26 04:36:04;;;;;;;42.55;26.33;;;;;;;;;;5049174;28;20043;-64
2022/08/26 04:38:30;;;;;;;39.35;25.65;;;;;;;;;;5058708;28;20040;-65
2022/08/26 04:40:56;;;;;;;38.50;25.05;;;;;;;;;;5046097;28;20041;-65
2022/08/26 04:43:29;;;;;;;38.42;23.60;;;;;;;;;;5048748;28;20455;-65
2022/08/26 04:45:55;;;;;;;32.78;22.80;;;;;;;;;;5046347;28;20045;-65
2022/08/26 04:48:21;;;;;;;35.92;22.42;;;;;;;;;;5063287;28;20036;-65
2022/08/26 04:50:47;;;;;;;39.42;22.73;;;;;;;;;;5066092;28;20083;-65
2022/08/26 04:53:13;;;;;;;36.53;23.05;;;;;;;;;;5046843;28;20494;-65
2022/08/26 04:55:39;;;;;;;32.88;22.98;;;;;;;;;;5047250;28;20038;-65
2022/08/26 04:58:07;;;;;;;32.33;23.27;;;;;;;;;;5034640;28;20103;-65
2022/08/26 05:00:34;;;;;;;39.40;22.73;;;;;;;;;;5046518;28;20060;-65
2022/08/26 05:03:00;;;;;;;34.58;22.48;;;;;;;;;;5049850;28;20068;-65
2022/08/26 05:05:26;;;;;;;37.28;22.58;;;;;;;;;;5049967;28;20037;-65
2022/08/26 05:07:52;;;;;;;32.30;21.75;;;;;;;;;;5046574;28;20041;-64
2022/08/26 05:10:18;;;;;;;38.38;22.63;;;;;;;;;;5031312;28;20060;-65
2022/08/26 05:12:44;;;;;;;38.40;22.30;;;;;;;;;;5033166;28;20383;-65
2022/08/26 05:15:10;;;;;;;35.47;21.48;;;;;;;;;;5050613;28;20037;-65
2022/08/26 05:17:37;;;;;;;33.20;21.00;;;;;;;;;;5051426;28;20032;-65
2022/08/26 05:20:03;;;;;;;36.35;21.98;;;;;;;;;;5049188;28;20103;-64
2022/08/26 05:22:29;;;;;;;33.40;20.88;;;;;;;;;;5051529;28;20040;-65
2022/08/26 05:24:55;;;;;;;31.90;21.48;;;;;;;;;;5051452;28;20045;-65
2022/08/26 05:27:21;;;;;;;34.53;22.25;;;;;;;;;;5037322;28;20046;-64
2022/08/26 05:29:47;;;;;;;31.98;21.30;;;;;;;;;;5049289;28;20076;-64
2022/08/26 05:32:14;;;;;;;32.55;21.63;;;;;;;;;;5050854;28;20041;-64
2022/08/26 05:34:40;;;;;;;33.03;20.92;;;;;;;;;;5045970;28;20033;-64
2022/08/26 05:37:06;;;;;;;35.13;21.08;;;;;;;;;;5044253;28;20037;-64
2022/08/26 05:39:33;;;;;;;35.25;21.45;;;;;;;;;;5061061;28;20036;-64
2022/08/26 05:41:59;;;;;;;30.25;19.30;;;;;;;;;;5053173;28;20036;-64
2022/08/26 05:44:25;;;;;;;32.88;19.50;;;;;;;;;;5050243;28;20044;-64
2022/08/26 05:46:51;;;;;;;30.98;19.30;;;;;;;;;;5044781;28;20045;-64
2022/08/26 05:49:17;;;;;;;32.38;19.08;;;;;;;;;;5058400;28;20398;-64
2022/08/26 05:51:45;;;;;;;31.90;18.90;;;;;;;;;;5047371;28;20515;-65
2022/08/26 05:54:11;;;;;;;30.05;19.63;;;;;;;;;;5049483;28;20060;-64
2022/08/26 05:56:38;;;;;;;32.65;19.33;;;;;;;;;;5048339;28;20041;-63
2022/08/26 05:59:04;;;;;;;29.20;19.38;;;;;;;;;;5049982;28;20573;-63
2022/08/26 06:01:30;;;;;;;27.17;18.35;;;;;;;;;;5048807;28;20056;-62
2022/08/26 06:03:57;;;;;;;29.95;18.10;;;;;;;;;;5042635;28;20076;-63
2022/08/26 06:06:25;;;;;;;27.60;17.73;;;;;;;;;;5046826;28;20041;-63
2022/08/26 06:08:51;;;;;;;31.67;18.30;;;;;;;;;;5042643;28;20510;-62
2022/08/26 06:11:19;;;;;;;25.23;17.42;;;;;;;;;;5046885;28;20037;-62
2022/08/26 06:13:45;;;;;;;23.58;17.25;;;;;;;;;;5038105;28;20116;-62
2022/08/26 06:16:12;;;;;;;28.50;18.40;;;;;;;;;;5045587;28;20087;-63
2022/08/26 06:18:39;;;;;;;25.42;17.02;;;;;;;;;;5046703;28;20096;-63
2022/08/26 06:21:13;;;;;;;29.25;17.40;;;;;;;;;;5043950;28;20053;-63
2022/08/26 06:26:24;;;;;;;26.55;17.73;;;;;;;;;;5041014;28;20049;-63
2022/08/26 06:28:50;;;;;;;27.08;17.48;;;;;;;;;;5057505;28;20064;-63
2022/08/26 06:31:16;;;;;;;25.88;15.80;;;;;;;;;;5051663;28;20486;-62
2022/08/26 06:33:43;;;;;;;26.05;15.80;;;;;;;;;;5052174;28;20079;-63
2022/08/26 06:36:14;;;;;;;23.08;15.80;;;;;;;;;;5055771;28;20037;-63
2022/08/26 06:38:40;;;;;;;20.98;14.18;;;;;;;;;;5060986;28;20119;-63
2022/08/26 06:41:09;;;;;;;23.52;14.13;;;;;;;;;;5056337;28;20498;-63
2022/08/26 06:43:35;;;;;;;19.92;12.57;;;;;;;;;;5051982;28;20036;-63
2022/08/26 06:46:03;;;;;;;22.45;12.35;;;;;;;;;;5050336;28;20040;-63
2022/08/26 06:48:29;;;;;;;20.55;13.18;;;;;;;;;;5045642;28;20498;-63
2022/08/26 06:51:09;;;;;;;20.95;12.50;;;;;;;;;;5049359;28;20095;-63
2022/08/26 06:53:35;;;;;;;21.35;11.85;;;;;;;;;;5048590;28;20065;-63
2022/08/26 06:56:02;;;;;;;19.15;11.80;;;;;;;;;;5059731;28;20059;-63
2022/08/26 06:58:28;;;;;;;21.38;12.23;;;;;;;;;;5050621;28;20037;-63
2022/08/26 07:00:55;;;;;;;18.10;11.50;;;;;;;;;;5048632;28;20033;-63
2022/08/26 07:03:21;;;;;;;26.15;12.13;;;;;;;;;;5044950;28;20072;-63
2022/08/26 07:05:48;;;;;;;19.48;12.57;;;;;;;;;;5048822;28;20037;-63
2022/08/26 07:08:14;;;;;;;20.33;12.25;;;;;;;;;;5024833;28;20053;-63
2022/08/26 07:10:41;;;;;;;22.17;12.30;;;;;;;;;;5059930;28;20029;-63
2022/08/26 07:13:07;;;;;;;23.00;11.23;;;;;;;;;;5056431;28;20093;-63
2022/08/26 07:15:34;;;;;;;22.35;11.23;;;;;;;;;;5037502;28;20037;-63
2022/08/26 07:18:01;;;;;;;24.67;12.98;;;;;;;;;;5042315;28;20049;-63
2022/08/26 07:20:28;;;;;;;21.13;12.27;;;;;;;;;;5042563;28;20491;-62
2022/08/26 07:22:54;;;;;;;18.00;11.02;;;;;;;;;;5040799;28;20045;-63
2022/08/26 07:25:20;;;;;;;21.45;10.82;;;;;;;;;;5040327;28;20082;-63
2022/08/26 07:27:46;;;;;;;22.80;11.23;;;;;;;;;;5038380;28;20040;-63
2022/08/26 07:30:12;;;;;;;20.13;9.95;;;;;;;;;;5042106;28;20044;-63
2022/08/26 07:32:38;;;;;;;17.63;9.50;;;;;;;;;;5045581;28;20390;-63
2022/08/26 07:35:05;;;;;;;20.55;9.20;;;;;;;;;;5044022;28;20040;-63
2022/08/26 07:37:31;;;;;;;18.65;8.50;;;;;;;;;;5048087;28;20033;-62
2022/08/26 07:39:57;;;;;;;20.92;10.32;;;;;;;;;;5047315;28;20044;-63
2022/08/26 07:42:23;;;;;;;20.30;9.68;;;;;;;;;;5047900;28;20041;-63
2022/08/26 07:44:49;;;;;;;17.60;8.60;;;;;;;;;;5041915;28;20087;-63
2022/08/26 07:47:15;;;;;;;20.05;9.40;;;;;;;;;;5039696;28;20110;-63
2022/08/26 07:49:41;;;;;;;20.60;8.63;;;;;;;;;;5038947;28;20044;-63
2022/08/26 07:52:08;;;;;;;15.52;7.60;;;;;;;;;;5042007;28;20932;-63
2022/08/26 07:54:36;;;;;;;15.07;7.57;;;;;;;;;;5041627;28;20791;-63
2022/08/26 07:57:02;;;;;;;14.00;6.72;;;;;;;;;;5044404;28;20041;-63
2022/08/26 07:59:28;;;;;;;17.98;7.10;;;;;;;;;;5045997;28;20037;-63
2022/08/26 08:01:58;;;;;;;14.07;6.60;;;;;;;;;;5037069;28;20041;-63
2022/08/26 08:04:25;;;;;;;16.30;6.90;;;;;;;;;;5042672;28;20499;-63
2022/08/26 08:06:50;;;;;;;14.90;7.05;;;;;;;;;;5043639;28;20045;-63
2022/08/26 08:09:16;;;;;;;14.30;6.93;;;;;;;;;;5045350;28;20044;-63
2022/08/26 08:11:43;;;;;;;15.25;7.15;;;;;;;;;;5046441;28;20037;-63
2022/08/26 08:14:10;;;;;;;14.93;7.05;;;;;;;;;;5039580;28;20032;-63
2022/08/26 08:16:36;;;;;;;17.75;6.95;;;;;;;;;;5039733;28;20036;-62
2022/08/26 08:19:02;;;;;;;13.23;7.05;;;;;;;;;;5051516;28;20039;-63
2022/08/26 08:21:29;;;;;;;19.73;7.32;;;;;;;;;;5050100;28;20030;-63
2022/08/26 08:23:55;;;;;;;12.85;6.65;;;;;;;;;;5050775;28;20045;-63
2022/08/26 08:26:22;;;;;;;15.40;5.88;;;;;;;;;;5044255;28;20385;-63
2022/08/26 08:28:48;;;;;;;13.43;6.63;;;;;;;;;;5045865;28;20055;-64
2022/08/26 08:31:19;;;;;;;15.48;6.45;;;;;;;;;;5046954;28;20502;-63
2022/08/26 08:33:45;;;;;;;13.20;6.03;;;;;;;;;;5053388;28;20114;-64
2022/08/26 08:36:13;;;;;;;12.63;5.60;;;;;;;;;;5041982;28;20033;-63
2022/08/26 08:38:39;;;;;;;14.25;6.30;;;;;;;;;;5043452;28;20116;-64
2022/08/26 08:41:06;;;;;;;14.10;6.32;;;;;;;;;;5050978;28;20033;-64
2022/08/26 08:43:38;;;;;;;16.52;7.07;;;;;;;;;;5049373;28;20033;-64
2022/08/26 08:46:07;;;;;;;15.73;6.50;;;;;;;;;;5052379;28;20048;-64
2022/08/26 08:48:35;;;;;;;17.83;6.00;;;;;;;;;;5039378;28;20037;-65
2022/08/26 08:51:07;;;;;;;15.30;6.35;;;;;;;;;;5049143;28;20037;-64
2022/08/26 08:53:40;;;;;;;16.10;5.68;;;;;;;;;;5046552;28;20120;-64
2022/08/26 08:56:12;;;;;;;13.30;5.38;;;;;;;;;;5041818;28;20548;-64
2022/08/26 08:58:56;;;;;;;8.82;4.82;;;;;;;;;;5050514;28;20041;-64
2022/08/26 09:01:34;;;;;;;10.88;4.70;;;;;;;;;;5045584;28;20048;-64
2022/08/26 09:04:32;;;;;;;11.18;4.93;;;;;;;;;;5052651;28;20498;-64
2022/08/26 09:07:00;;;;;;;11.23;5.10;;;;;;;;;;5005302;28;20079;-64
2022/08/26 09:09:34;;;;;;;14.13;5.38;;;;;;;;;;5041215;28;20046;-64
2022/08/26 09:12:01;;;;;;;12.25;4.82;;;;;;;;;;5024578;28;20990;-64
2022/08/26 09:14:27;;;;;;;14.15;4.57;;;;;;;;;;5049022;28;20044;-65
2022/08/26 09:17:16;;;;;;;14.30;4.78;;;;;;;;;;5048978;28;20132;-64
2022/08/26 09:19:46;;;;;;;11.23;4.07;;;;;;;;;;5040878;28;20048;-64
2022/08/26 09:22:26;;;;;;;11.63;4.40;;;;;;;;;;5044905;28;20048;-64
2022/08/26 09:24:52;;;;;;;10.25;3.50;;;;;;;;;;5043082;28;20478;-64
2022/08/26 09:27:37;;;;;;;11.15;3.35;;;;;;;;;;5047003;28;20127;-64
2022/08/26 09:30:06;;;;;;;8.43;2.42;;;;;;;;;;5047255;28;20898;-65
2022/08/26 09:32:33;;;;;;;7.45;2.70;;;;;;;;;;5051131;28;20032;-65
2022/08/26 09:35:07;;;;;;;9.40;2.72;;;;;;;;;;5044153;28;20041;-65
2022/08/26 09:37:39;;;;;;;7.28;2.70;;;;;;;;;;5037459;28;20526;-65
2022/08/26 09:40:15;;;;;;;6.55;2.50;;;;;;;;;;5049466;28;20179;-64
2022/08/26 09:42:41;;;;;;;11.80;2.75;;;;;;;;;;5051305;28;20090;-65
2022/08/26 09:45:09;;;;;;;10.15;2.90;;;;;;;;;;5051442;28;20041;-64
2022/08/26 09:47:38;;;;;;;7.15;2.10;;;;;;;;;;5046138;28;20161;-64
2022/08/26 09:50:07;;;;;;;9.00;2.20;;;;;;;;;;5051053;28;20041;-64
2022/08/26 09:52:33;;;;;;;6.88;2.00;;;;;;;;;;5043077;28;20048;-65
2022/08/26 09:55:05;;;;;;;11.70;2.30;;;;;;;;;;5044844;28;20037;-64
2022/08/26 09:57:43;;;;;;;9.38;2.00;;;;;;;;;;5041953;28;20495;-64
2022/08/26 10:00:29;;;;;;;9.13;2.72;;;;;;;;;;5041965;28;20042;-64
2022/08/26 10:02:57;;;;;;;10.75;2.60;;;;;;;;;;5031048;28;20044;-64
2022/08/26 10:05:49;;;;;;;10.80;2.00;;;;;;;;;;5042966;28;20585;-64
2022/08/26 10:08:25;;;;;;;6.38;2.15;;;;;;;;;;5047112;28;20049;-64
2022/08/26 10:10:52;;;;;;;5.20;1.90;;;;;;;;;;5049651;28;20037;-64
2022/08/26 10:13:23;;;;;;;9.10;1.95;;;;;;;;;;5045565;28;20490;-64
2022/08/26 10:15:56;;;;;;;7.50;2.08;;;;;;;;;;5057260;22;20075;-63
2022/08/26 10:18:25;;;;;;;7.70;2.20;;;;;;;;;;5041330;28;20045;-63
2022/08/26 10:20:55;;;;;;;8.27;2.35;;;;;;;;;;5052436;28;20048;-63
2022/08/26 10:23:24;;;;;;;7.78;2.03;;;;;;;;;;5046289;28;20510;-63
2022/08/26 10:25:55;;;;;;;9.70;2.45;;;;;;;;;;5045466;28;20037;-63
2022/08/26 10:28:39;;;;;;;5.30;2.10;;;;;;;;;;5047865;28;20094;-63
2022/08/26 10:31:15;;;;;;;5.72;1.65;;;;;;;;;;5052674;28;20583;-63
2022/08/26 10:33:41;;;;;;;8.63;2.05;;;;;;;;;;5056227;28;20398;-63
2022/08/26 10:36:47;;;;;;;6.50;1.95;;;;;;;;;;5054509;28;20437;-63
2022/08/26 10:38:58;;;;;;;6.50;2.00;;;;;;;;;;5047048;28;20088;-63
2022/08/26 10:41:26;;;;;;;6.20;2.20;;;;;;;;;;5047586;28;20045;-63
2022/08/26 10:43:55;;;;;;;8.25;2.10;;;;;;;;;;5038154;28;20544;-63
2022/08/26 10:46:23;;;;;;;5.57;2.08;;;;;;;;;;5059667;28;20041;-63
2022/08/26 10:48:55;;;;;;;9.27;2.03;;;;;;;;;;5049255;28;20052;-63
2022/08/26 10:51:24;;;;;;;7.55;2.58;;;;;;;;;;5041552;28;20045;-63
2022/08/26 10:53:56;;;;;;;7.78;1.95;;;;;;;;;;5042721;28;20041;-63
2022/08/26 10:56:34;;;;;;;10.40;2.38;;;;;;;;;;5062983;28;20033;-63
2022/08/26 10:59:05;;;;;;;4.97;1.90;;;;;;;;;;5052475;28;20501;-63
2022/08/26 11:01:53;;;;;;;6.75;1.90;;;;;;;;;;5049074;28;20124;-63
2022/08/26 11:04:38;;;;;;;4.82;2.13;;;;;;;;;;5042455;28;20413;-63
2022/08/26 11:07:22;;;;;;;5.13;2.38;;;;;;;;;;5049506;28;20040;-63
2022/08/26 11:09:50;;;;;;;5.65;2.10;;;;;;;;;;5042807;28;20132;-63
2022/08/26 11:12:36;;;;;;;7.88;2.05;;;;;;;;;;5044932;28;20044;-63
2022/08/26 11:15:04;;;;;;;6.22;2.15;;;;;;;;;;5038317;28;20063;-63
2022/08/26 11:17:46;;;;;;;7.50;2.28;;;;;;;;;;5047586;28;20441;-63
2022/08/26 11:20:12;;;;;;;7.57;2.03;;;;;;;;;;5056989;28;20411;-63
2022/08/26 11:22:38;;;;;;;7.05;2.40;;;;;;;;;;5044208;28;20068;-63
2022/08/26 11:25:06;;;;;;;7.60;2.35;;;;;;;;;;5049530;28;20041;-63
2022/08/26 11:27:34;;;;;;;7.78;2.80;;;;;;;;;;5042127;28;20080;-63
2022/08/26 11:30:03;;;;;;;6.03;2.42;;;;;;;;;;5042732;28;20048;-63
2022/08/26 11:32:38;;;;;;;8.85;2.67;;;;;;;;;;5049982;28;20462;-63
2022/08/26 11:35:12;;;;;;;4.93;2.25;;;;;;;;;;5032560;28;20041;-63
2022/08/26 11:37:38;;;;;;;9.35;2.35;;;;;;;;;;5046903;28;20438;-63
2022/08/26 11:40:16;;;;;;;11.23;2.53;;;;;;;;;;5048468;28;20044;-63
2022/08/26 11:42:53;;;;;;;9.18;2.40;;;;;;;;;;5035684;28;20053;-63
2022/08/26 11:45:25;;;;;;;8.73;2.72;;;;;;;;;;5043088;28;20054;-63
2022/08/26 11:47:51;;;;;;;5.47;2.28;;;;;;;;;;5058588;28;20128;-63
2022/08/26 11:50:23;;;;;;;9.60;2.80;;;;;;;;;;5064865;28;20041;-63
2022/08/26 11:52:54;;;;;;;8.13;2.30;;;;;;;;;;5050426;28;20094;-63
2022/08/26 11:55:20;;;;;;;10.27;2.53;;;;;;;;;;5045177;28;20061;-63
2022/08/26 11:57:48;;;;;;;8.98;2.47;;;;;;;;;;5039162;28;20079;-63
2022/08/26 12:00:20;;;;;;;10.00;2.72;;;;;;;;;;5050541;28;20495;-63
2022/08/26 12:02:46;;;;;;;9.02;2.63;;;;;;;;;;5045915;28;20037;-63
2022/08/26 12:05:13;;;;;;;10.98;2.50;;;;;;;;;;5051251;28;20086;-62
2022/08/26 12:07:39;;;;;;;9.57;2.30;;;;;;;;;;5056590;28;20036;-63
2022/08/26 12:10:06;;;;;;;8.07;2.40;;;;;;;;;;5047661;28;21734;-63
2022/08/26 12:12:34;;;;;;;6.72;2.55;;;;;;;;;;5042312;28;20032;-63
2022/08/26 12:15:09;;;;;;;8.93;2.53;;;;;;;;;;5041874;28;20036;-63
2022/08/26 12:17:35;;;;;;;11.18;2.58;;;;;;;;;;5051720;28;20033;-63
2022/08/26 12:20:02;;;;;;;7.28;2.40;;;;;;;;;;5050186;28;20159;-63
2022/08/26 12:22:29;;;;;;;8.32;2.25;;;;;;;;;;5046590;28;20033;-63
2022/08/26 12:25:00;;;;;;;8.82;2.70;;;;;;;;;;5053145;28;20037;-63
2022/08/26 12:27:40;;;;;;;9.35;2.28;;;;;;;;;;5045017;28;20405;-63
2022/08/26 12:30:06;;;;;;;6.35;2.15;;;;;;;;;;5047645;28;20048;-63
2022/08/26 12:32:33;;;;;;;6.63;1.90;;;;;;;;;;5032585;28;20037;-62
2022/08/26 12:35:03;;;;;;;9.88;2.22;;;;;;;;;;5045199;28;20483;-62
2022/08/26 12:37:32;;;;;;;9.67;1.90;;;;;;;;;;5036347;28;20053;-62
2022/08/26 12:40:18;;;;;;;7.97;2.10;;;;;;;;;;5051140;28;20088;-62
2022/08/26 12:42:44;;;;;;;11.00;1.90;;;;;;;;;;5069957;28;20121;-62
2022/08/26 12:45:10;;;;;;;7.10;1.80;;;;;;;;;;5068574;28;20051;-62
2022/08/26 12:47:37;;;;;;;7.60;2.00;;;;;;;;;;5045669;28;20044;-62
2022/08/26 12:50:03;;;;;;;7.13;1.95;;;;;;;;;;5035744;28;20041;-62
2022/08/26 12:52:30;;;;;;;7.35;1.80;;;;;;;;;;5048382;28;20033;-62
2022/08/26 12:54:58;;;;;;;7.35;2.38;;;;;;;;;;5046215;28;20406;-62
2022/08/26 12:57:29;;;;;;;5.43;1.50;;;;;;;;;;5051216;28;20079;-62
2022/08/26 12:59:55;;;;;;;;;;;;;;;;;;5051287;28;20115;-62
2022/08/26 13:02:38;;;;;;;9.23;2.40;;;;;;;;;;5051203;28;19916;-62
2022/08/26 13:05:04;;;;;;;8.40;2.28;;;;;;;;;;5050845;28;20499;-62
2022/08/26 13:07:30;;;;;;;9.10;2.05;;;;;;;;;;5046410;28;20044;-62
2022/08/26 13:09:58;;;;;;;6.20;2.38;;;;;;;;;;5054540;28;20073;-62
2022/08/26 13:12:27;;;;;;;8.43;2.30;;;;;;;;;;5053769;28;20049;-62
2022/08/26 13:14:53;;;;;;;8.05;2.10;;;;;;;;;;5054117;28;20037;-62
2022/08/26 13:17:19;;;;;;;10.82;2.17;;;;;;;;;;5052716;28;20483;-62
2022/08/26 13:19:46;;;;;;;9.45;2.50;;;;;;;;;;5051009;28;20052;-62
2022/08/26 13:22:13;;;;;;;7.07;2.38;;;;;;;;;;5046239;28;20047;-62
2022/08/26 13:24:42;;;;;;;7.10;2.13;;;;;;;;;;5054017;28;20082;-62
2022/08/26 13:27:10;;;;;;;5.00;2.27;;;;;;;;;;5053045;28;20041;-62
2022/08/26 13:29:36;;;;;;;6.13;2.30;;;;;;;;;;5053758;28;20048;-62
2022/08/26 13:32:03;;;;;;;7.32;2.42;;;;;;;;;;5052850;28;20033;-62
2022/08/26 13:34:29;;;;;;;9.70;2.47;;;;;;;;;;5053591;28;20379;-62
2022/08/26 13:36:56;;;;;;;7.63;2.05;;;;;;;;;;5047527;28;20034;-62
2022/08/26 13:39:23;;;;;;;7.72;3.28;;;;;;;;;;5032780;28;20099;-62
2022/08/26 13:41:49;;;;;;;7.60;2.33;;;;;;;;;;5033895;28;20045;-62
2022/08/26 13:44:15;;;;;;;7.20;2.17;;;;;;;;;;5033700;28;20538;-62
2022/08/26 13:46:41;;;;;;;8.32;3.00;;;;;;;;;;5044235;28;20056;-62
2022/08/26 13:49:07;;;;;;;7.70;2.03;;;;;;;;;;5053029;28;20120;-62
2022/08/26 13:51:33;;;;;;;6.85;2.00;;;;;;;;;;5045940;28;20566;-62
2022/08/26 13:53:59;;;;;;;6.70;2.30;;;;;;;;;;5053934;28;20073;-62
2022/08/26 13:56:28;;;;;;;8.43;2.30;;;;;;;;;;5053431;28;20501;-62
2022/08/26 13:58:55;;;;;;;4.93;2.08;;;;;;;;;;5053287;28;20080;-62
2022/08/26 14:01:21;;;;;;;7.53;2.33;;;;;;;;;;5051818;28;20091;-62
2022/08/26 14:03:47;;;;;;;6.63;2.13;;;;;;;;;;5045200;28;20044;-62
2022/08/26 14:06:14;;;;;;;2.72;1.50;;;;;;;;;;5052813;28;20128;-62
2022/08/26 14:08:40;;;;;;;5.35;1.50;;;;;;;;;;5053268;28;20052;-62
2022/08/26 14:11:06;;;;;;;6.05;1.65;;;;;;;;;;5053604;28;20095;-62
2022/08/26 14:13:32;;;;;;;6.50;1.70;;;;;;;;;;5052223;28;20068;-62
2022/08/26 14:16:00;;;;;;;3.65;1.30;;;;;;;;;;5046509;28;20075;-62
2022/08/26 14:18:32;;;;;;;3.85;1.33;;;;;;;;;;5048700;28;20040;-62
2022/08/26 14:20:58;;;;;;;5.90;1.50;;;;;;;;;;5051714;28;20116;-62
2022/08/26 14:23:25;;;;;;;7.97;2.00;;;;;;;;;;5049770;28;20045;-62
2022/08/26 14:25:51;;;;;;;6.32;1.85;;;;;;;;;;5038846;28;20037;-62
2022/08/26 14:28:17;;;;;;;4.38;1.98;;;;;;;;;;5033001;28;20072;-62
2022/08/26 14:30:47;;;;;;;9.55;2.20;;;;;;;;;;5037867;28;20380;-62
2022/08/26 14:33:15;;;;;;;5.78;1.92;;;;;;;;;;5049972;28;20037;-62
2022/08/26 14:35:41;;;;;;;5.85;1.60;;;;;;;;;;5046841;28;20037;-62
2022/08/26 14:38:07;;;;;;;7.10;2.05;;;;;;;;;;5049598;28;20045;-62
2022/08/26 14:40:33;;;;;;;10.50;2.25;;;;;;;;;;5052790;28;20532;-62